createdAt,value
2023-01-28T00:01:31.250Z,0.00
2023-01-28T00:06:32.957Z,-0.01
2023-01-28T00:11:34.737Z,-0.03
2023-01-28T00:16:39.370Z,-0.04
2023-01-28T00:21:41.540Z,-0.04
2023-01-28T00:26:43.844Z,-0.04
2023-01-28T00:31:46.693Z,-0.04
2023-01-28T00:36:57.902Z,-0.04
2023-01-28T00:41:59.822Z,-0.08
2023-01-28T00:47:01.588Z,-0.11
2023-01-28T00:52:04.146Z,-0.10
2023-01-28T00:57:07.099Z,-0.09
2023-01-28T01:02:15.037Z,-0.08
2023-01-28T01:07:16.941Z,-0.11
2023-01-28T01:12:19.577Z,-0.07
2023-01-28T01:17:21.766Z,-0.02
2023-01-28T01:22:23.776Z,0.03
2023-01-28T01:27:25.517Z,0.09
2023-01-28T01:32:35.222Z,0.12
2023-01-28T01:37:37.621Z,-0.03
2023-01-28T01:42:39.600Z,-0.15
2023-01-28T01:47:50.525Z,-0.19
2023-01-28T01:52:57.302Z,-0.14
2023-01-28T01:58:06.144Z,-0.11
2023-01-28T02:03:22.245Z,-0.16
2023-01-28T02:08:25.701Z,-0.15
2023-01-28T02:13:33.778Z,-0.09
2023-01-28T02:18:35.873Z,0.01
2023-01-28T02:24:03.872Z,0.09
2023-01-28T02:29:26.432Z,0.13
2023-01-28T02:34:36.629Z,0.14
2023-01-28T02:40:02.177Z,0.13
2023-01-28T02:45:52.902Z,0.14
2023-01-28T02:51:13.445Z,0.15
2023-01-28T02:56:50.928Z,0.17
2023-01-28T03:01:59.902Z,0.10
2023-01-28T03:07:07.599Z,-0.04
2023-01-28T03:12:43.028Z,-0.14
2023-01-28T03:18:30.862Z,-0.24
2023-01-28T03:24:03.170Z,-0.29
2023-01-28T03:29:30.224Z,-0.28
2023-01-28T03:34:51.052Z,-0.18
2023-01-28T03:39:53.081Z,-0.15
2023-01-28T03:44:56.021Z,-0.24
2023-01-28T03:49:59.905Z,-0.34
2023-01-28T03:55:13.848Z,-0.38
2023-01-28T04:00:18.263Z,-0.40
2023-01-28T04:05:20.750Z,-0.41
2023-01-28T04:10:23.845Z,-0.40
2023-01-28T04:15:32.099Z,-0.40
2023-01-28T04:20:33.872Z,-0.37
2023-01-28T04:25:36.337Z,-0.32
2023-01-28T04:30:41.247Z,-0.23
2023-01-28T04:35:57.926Z,-0.21
2023-01-28T04:41:11.155Z,-0.24
2023-01-28T04:46:13.365Z,-0.27
2023-01-28T04:51:18.387Z,-0.33
2023-01-28T04:56:30.159Z,-0.36
2023-01-28T05:01:31.910Z,-0.40
2023-01-28T05:06:34.838Z,-0.40
2023-01-28T05:11:41.885Z,-0.40
2023-01-28T05:16:43.650Z,-0.42
2023-01-28T05:21:46.592Z,-0.42
2023-01-28T05:27:07.549Z,-0.37
2023-01-28T05:32:09.673Z,-0.32
2023-01-28T05:37:11.440Z,-0.30
2023-01-28T05:42:15.681Z,-0.24
2023-01-28T05:47:20.938Z,-0.21
2023-01-28T05:52:30.403Z,-0.20
2023-01-28T05:57:32.746Z,-0.26
2023-01-28T06:02:34.666Z,-0.29
2023-01-28T06:07:36.604Z,-0.29
2023-01-28T06:12:38.918Z,-0.28
2023-01-28T06:18:00.997Z,-0.28
2023-01-28T06:23:06.397Z,-0.25
2023-01-28T06:28:08.290Z,-0.19
2023-01-28T06:33:09.903Z,-0.19
2023-01-28T06:38:12.446Z,-0.17
2023-01-28T06:43:14.171Z,-0.16
2023-01-28T06:48:15.816Z,-0.11
2023-01-28T06:53:18.477Z,-0.20
2023-01-28T06:58:20.339Z,-0.23
2023-01-28T07:03:22.156Z,-0.24
2023-01-28T07:08:23.952Z,-0.28
2023-01-28T07:13:25.770Z,-0.23
2023-01-28T07:18:27.568Z,-0.16
2023-01-28T07:23:30.319Z,-0.14
2023-01-28T07:28:32.536Z,-0.09
2023-01-28T07:33:34.225Z,-0.02
2023-01-28T07:38:35.800Z,0.11
2023-01-28T07:43:37.454Z,0.17
2023-01-28T07:48:39.076Z,0.18
2023-01-28T07:53:40.954Z,0.20
2023-01-28T07:58:42.668Z,0.29
2023-01-28T08:03:44.414Z,0.27
2023-01-28T08:08:47.290Z,0.16
2023-01-28T08:13:49.783Z,0.17
2023-01-28T08:18:52.688Z,0.11
2023-01-28T08:23:55.114Z,0.10
2023-01-28T08:28:56.856Z,0.18
2023-01-28T08:34:01.236Z,0.25
2023-01-28T08:39:04.215Z,0.29
2023-01-28T08:44:06.133Z,0.43
2023-01-28T08:49:07.722Z,0.51
2023-01-28T08:54:09.407Z,0.59
2023-01-28T08:59:12.098Z,0.69
2023-01-28T09:04:13.806Z,0.73
2023-01-28T09:09:15.752Z,0.81
2023-01-28T09:14:17.637Z,0.99
2023-01-28T09:19:19.438Z,1.19
2023-01-28T09:24:21.607Z,1.35
2023-01-28T09:29:23.502Z,1.58
2023-01-28T09:34:25.246Z,1.85
2023-01-28T09:39:28.497Z,2.09
2023-01-28T09:44:36.095Z,2.20
2023-01-28T09:49:46.034Z,2.12
2023-01-28T09:54:55.217Z,2.14
2023-01-28T09:59:58.594Z,2.03
2023-01-28T10:06:05.238Z,2.14
2023-01-28T10:11:38.832Z,2.43
2023-01-28T10:16:46.557Z,2.76
2023-01-28T10:21:55.965Z,2.78
2023-01-28T10:26:58.352Z,2.64
2023-01-28T10:32:15.689Z,2.32
2023-01-28T10:37:17.532Z,2.29
2023-01-28T10:42:31.436Z,2.26
2023-01-28T10:47:40.164Z,2.43
2023-01-28T10:52:59.554Z,2.54
2023-01-28T10:58:04.272Z,2.56
2023-01-28T11:03:06.379Z,2.53
2023-01-28T11:08:17.162Z,2.59
2023-01-28T11:13:24.481Z,2.75
2023-01-28T11:18:33.460Z,2.77
2023-01-28T11:23:41.536Z,2.53
2023-01-28T11:28:43.847Z,2.42
2023-01-28T11:33:51.475Z,2.47
2023-01-28T11:38:56.149Z,2.54
2023-01-28T11:44:00.317Z,2.41
2023-01-28T11:49:42.732Z,2.28
2023-01-28T11:54:57.042Z,2.38
2023-01-28T12:00:27.012Z,2.58
2023-01-28T12:05:40.284Z,2.74
2023-01-28T12:10:48.265Z,2.91
2023-01-28T12:16:12.088Z,2.92
2023-01-28T12:21:30.391Z,2.89
2023-01-28T12:26:49.253Z,2.86
2023-01-28T12:31:57.911Z,2.75
2023-01-28T12:37:21.639Z,2.67
2023-01-28T12:43:15.898Z,2.67
2023-01-28T12:48:24.593Z,2.84
2023-01-28T12:53:45.512Z,2.90
2023-01-28T12:59:06.129Z,2.66
2023-01-28T13:04:40.121Z,2.35
2023-01-28T13:09:53.777Z,2.15
2023-01-28T13:14:55.878Z,2.02
2023-01-28T13:19:59.649Z,1.97
2023-01-28T13:25:20.949Z,1.92
2023-01-28T13:30:29.655Z,1.85
2023-01-28T13:35:37.392Z,1.89
2023-01-28T13:40:41.668Z,1.82
2023-01-28T13:46:02.262Z,1.75
2023-01-28T13:51:10.137Z,1.74
2023-01-28T13:56:23.483Z,1.88
2023-01-28T14:01:38.750Z,1.95
2023-01-28T14:06:49.646Z,1.86
2023-01-28T14:12:17.530Z,1.65
2023-01-28T14:17:45.411Z,1.55
2023-01-28T14:22:49.245Z,1.64
2023-01-28T14:27:54.882Z,1.72
2023-01-28T14:32:56.768Z,1.71
2023-01-28T14:38:00.897Z,1.66
2023-01-28T14:43:07.980Z,1.70
2023-01-28T14:48:28.505Z,1.70
2023-01-28T14:53:39.123Z,1.61
2023-01-28T14:58:49.179Z,1.51
2023-01-28T15:03:51.711Z,1.54
2023-01-28T15:08:53.940Z,1.44
2023-01-28T15:13:59.081Z,1.41
2023-01-28T15:19:02.490Z,1.44
2023-01-28T15:24:05.212Z,1.47
2023-01-28T15:29:06.989Z,1.40
2023-01-28T15:34:18.061Z,1.32
2023-01-28T15:39:26.036Z,1.36
2023-01-28T15:44:49.205Z,1.39
2023-01-28T15:49:55.054Z,1.38
2023-01-28T15:54:57.821Z,1.41
2023-01-28T16:00:19.896Z,1.44
2023-01-28T16:05:42.969Z,1.32
2023-01-28T16:10:55.888Z,1.36
2023-01-28T16:15:59.305Z,1.49
2023-01-28T16:21:01.327Z,1.44
2023-01-28T16:26:21.323Z,1.34
2023-01-28T16:31:23.382Z,1.35
2023-01-28T16:36:25.238Z,1.39
2023-01-28T16:41:29.501Z,1.38
2023-01-28T16:46:33.574Z,1.28
2023-01-28T16:51:38.543Z,1.21
2023-01-28T16:56:47.665Z,1.28
2023-01-28T17:01:49.669Z,1.35
2023-01-28T17:06:53.164Z,1.35
2023-01-28T17:11:57.735Z,1.38
2023-01-28T17:16:59.968Z,1.42
2023-01-28T17:22:01.759Z,1.39
2023-01-28T17:27:03.583Z,1.35
2023-01-28T17:32:05.577Z,1.40
2023-01-28T17:37:07.394Z,1.48
2023-01-28T17:42:09.267Z,1.53
2023-01-28T17:47:10.985Z,1.58
2023-01-28T17:52:12.738Z,1.57
2023-01-28T17:57:14.485Z,1.60
2023-01-28T18:02:16.957Z,1.65
2023-01-28T18:07:18.814Z,1.69
2023-01-28T18:12:20.857Z,1.66
2023-01-28T18:17:27.056Z,1.63
2023-01-28T18:22:28.793Z,1.56
2023-01-28T18:27:30.415Z,1.44
2023-01-28T18:32:32.125Z,1.37
2023-01-28T18:37:33.828Z,1.38
2023-01-28T18:42:37.656Z,1.18
2023-01-28T18:47:40.034Z,0.85
2023-01-28T18:52:41.930Z,0.77
2023-01-28T18:57:46.486Z,0.81
2023-01-28T19:02:48.333Z,0.83
2023-01-28T19:07:50.086Z,0.86
2023-01-28T19:12:51.964Z,0.75
2023-01-28T19:17:56.033Z,0.63
2023-01-28T19:22:57.777Z,0.58
2023-01-28T19:27:59.548Z,0.59
2023-01-28T19:33:01.756Z,0.63
2023-01-28T19:38:03.904Z,0.57
2023-01-28T19:43:06.037Z,0.56
2023-01-28T19:48:07.990Z,0.62
2023-01-28T19:53:09.805Z,0.55
2023-01-28T19:58:11.853Z,0.53
2023-01-28T20:03:13.622Z,0.51
2023-01-28T20:08:16.023Z,0.39
2023-01-28T20:13:17.717Z,0.37
2023-01-28T20:18:22.335Z,0.38
2023-01-28T20:23:24.372Z,0.37
2023-01-28T20:28:26.922Z,0.30
2023-01-28T20:33:28.643Z,0.16
2023-01-28T20:38:30.706Z,0.15
2023-01-28T20:43:34.832Z,0.12
2023-01-28T20:48:36.529Z,0.13
2023-01-28T20:53:38.575Z,0.09
2023-01-28T20:58:41.368Z,0.16
2023-01-28T21:03:43.497Z,0.15
2023-01-28T21:08:45.535Z,0.10
2023-01-28T21:13:47.824Z,0.02
2023-01-28T21:18:50.381Z,-0.03
2023-01-28T21:23:57.973Z,-0.06
2023-01-28T21:29:00.597Z,-0.13
2023-01-28T21:34:02.854Z,-0.25
2023-01-28T21:39:05.428Z,-0.34
2023-01-28T21:44:07.251Z,-0.30
2023-01-28T21:49:10.687Z,-0.31
2023-01-28T21:54:14.934Z,-0.33
2023-01-28T21:59:33.256Z,-0.35
2023-01-28T22:04:37.217Z,-0.34
2023-01-28T22:09:42.517Z,-0.39
2023-01-28T22:14:46.921Z,-0.61
2023-01-28T22:19:49.906Z,-1.02
2023-01-28T22:24:51.687Z,-1.25
2023-01-28T22:29:53.897Z,-1.38
2023-01-28T22:34:55.697Z,-1.48
2023-01-28T22:39:57.537Z,-1.53
2023-01-28T22:44:59.387Z,-1.57
2023-01-28T22:50:01.202Z,-1.58
2023-01-28T22:55:04.064Z,-1.66
2023-01-28T23:00:11.788Z,-1.68
2023-01-28T23:05:13.640Z,-1.67
2023-01-28T23:10:15.977Z,-1.70
2023-01-28T23:15:36.690Z,-1.77
2023-01-28T23:20:59.019Z,-1.73
2023-01-28T23:26:00.752Z,-1.72
2023-01-28T23:31:02.760Z,-1.79
2023-01-28T23:36:04.931Z,-1.87
2023-01-28T23:41:06.765Z,-1.88
2023-01-28T23:46:08.478Z,-1.95
2023-01-28T23:51:11.200Z,-2.02
2023-01-28T23:56:13.980Z,-2.08
